Terminal Aerodrome Forecast
Issued by NWS

Home | Current Version | Previous Version | Text Only | Print | Product List | Glossary On
Versions: 1 2 3 4 5 6 7 8 9 10 11 12 13 14 15 16 17 18 19 20 21
000
FTUS44 KCRP 222046 AAA
TAFALI
TAF AMD
KALI 222046Z 2221/2318 16015G22KT P6SM SCT050
     FM230200 15008KT P6SM SKC
     FM230800 15007KT 6SM BR BKN015
     FM231600 16017G22KT P6SM SCT024=

USA.gov is the U.S. government's official web portal to all federal, state and local government web resources and services.